sensor_id;sensor_type;location;lat;lon;timestamp;pressure;altitude;pressure_sealevel;temperature;humidity
19624;BME280;9959;49.798;9.928;2023-05-09T00:00:02;99971.91;;;14.56;86.17
19624;BME280;9959;49.798;9.928;2023-05-09T00:02:31;99970.69;;;14.52;85.45
19624;BME280;9959;49.798;9.928;2023-05-09T00:05:00;99967.72;;;14.42;86.42
19624;BME280;9959;49.798;9.928;2023-05-09T00:07:29;99967.28;;;14.45;85.98
19624;BME280;9959;49.798;9.928;2023-05-09T00:09:57;99964.84;;;14.37;86.29
19624;BME280;9959;49.798;9.928;2023-05-09T00:12:24;99966.19;;;14.28;86.30
19624;BME280;9959;49.798;9.928;2023-05-09T00:14:51;99967.47;;;14.26;86.91
19624;BME280;9959;49.798;9.928;2023-05-09T00:17:19;99963.22;;;14.18;87.31
19624;BME280;9959;49.798;9.928;2023-05-09T00:19:48;99963.34;;;14.23;88.28
19624;BME280;9959;49.798;9.928;2023-05-09T00:22:17;99956.59;;;14.14;88.94
19624;BME280;9959;49.798;9.928;2023-05-09T00:24:47;99960.38;;;14.13;88.92
19624;BME280;9959;49.798;9.928;2023-05-09T00:27:14;99953.38;;;14.05;90.36
19624;BME280;9959;49.798;9.928;2023-05-09T00:29:42;99960.97;;;13.97;91.24
19624;BME280;9959;49.798;9.928;2023-05-09T00:32:09;99961.25;;;14.07;91.57
19624;BME280;9959;49.798;9.928;2023-05-09T00:34:36;99948.41;;;14.02;96.23
19624;BME280;9959;49.798;9.928;2023-05-09T00:37:03;99944.84;;;14.02;97.21
19624;BME280;9959;49.798;9.928;2023-05-09T00:39:29;99946.13;;;13.99;98.67
19624;BME280;9959;49.798;9.928;2023-05-09T00:41:56;99938.00;;;13.99;99.35
19624;BME280;9959;49.798;9.928;2023-05-09T00:44:23;99938.84;;;14.00;100.00
19624;BME280;9959;49.798;9.928;2023-05-09T00:46:50;99929.84;;;13.87;100.00
19624;BME280;9959;49.798;9.928;2023-05-09T00:49:17;99929.38;;;13.91;100.00
19624;BME280;9959;49.798;9.928;2023-05-09T00:51:44;99931.78;;;13.80;100.00
19624;BME280;9959;49.798;9.928;2023-05-09T00:54:11;99929.91;;;13.81;100.00
19624;BME280;9959;49.798;9.928;2023-05-09T00:56:38;99928.03;;;13.81;100.00
19624;BME280;9959;49.798;9.928;2023-05-09T00:59:05;99932.00;;;13.79;100.00
19624;BME280;9959;49.798;9.928;2023-05-09T01:01:32;99925.16;;;13.76;100.00
19624;BME280;9959;49.798;9.928;2023-05-09T01:03:59;99923.34;;;13.70;100.00
19624;BME280;9959;49.798;9.928;2023-05-09T01:06:35;99927.59;;;13.66;100.00
19624;BME280;9959;49.798;9.928;2023-05-09T01:12:46;99917.31;;;13.68;98.63
19624;BME280;9959;49.798;9.928;2023-05-09T01:15:35;99924.41;;;13.69;97.60
19624;BME280;9959;49.798;9.928;2023-05-09T01:18:16;99919.13;;;13.74;93.65
19624;BME280;9959;49.798;9.928;2023-05-09T01:20:54;99919.06;;;13.63;92.67
19624;BME280;9959;49.798;9.928;2023-05-09T01:26:43;99910.56;;;13.59;91.19
19624;BME280;9959;49.798;9.928;2023-05-09T01:29:41;99907.03;;;13.59;90.29
19624;BME280;9959;49.798;9.928;2023-05-09T01:32:13;99905.31;;;13.64;89.00
19624;BME280;9959;49.798;9.928;2023-05-09T01:34:43;99915.75;;;13.61;88.87
19624;BME280;9959;49.798;9.928;2023-05-09T01:37:13;99906.06;;;13.53;88.25
19624;BME280;9959;49.798;9.928;2023-05-09T01:39:47;99911.47;;;13.53;88.41
19624;BME280;9959;49.798;9.928;2023-05-09T01:42:18;99894.63;;;13.51;89.03
19624;BME280;9959;49.798;9.928;2023-05-09T01:44:46;99907.09;;;13.52;89.38
19624;BME280;9959;49.798;9.928;2023-05-09T01:47:14;99905.66;;;13.49;88.63
19624;BME280;9959;49.798;9.928;2023-05-09T01:49:43;99899.13;;;13.39;88.78
19624;BME280;9959;49.798;9.928;2023-05-09T01:52:14;99908.75;;;13.35;88.85
19624;BME280;9959;49.798;9.928;2023-05-09T01:54:43;99909.03;;;13.27;89.41
19624;BME280;9959;49.798;9.928;2023-05-09T01:57:11;99905.16;;;13.16;89.89
19624;BME280;9959;49.798;9.928;2023-05-09T01:59:40;99901.91;;;13.07;89.98
19624;BME280;9959;49.798;9.928;2023-05-09T02:02:08;99901.94;;;13.01;89.86
19624;BME280;9959;49.798;9.928;2023-05-09T02:04:36;99905.31;;;12.96;89.96
19624;BME280;9959;49.798;9.928;2023-05-09T02:07:05;99894.06;;;12.99;89.98
19624;BME280;9959;49.798;9.928;2023-05-09T02:09:33;99895.75;;;12.94;89.75
19624;BME280;9959;49.798;9.928;2023-05-09T02:12:00;99888.31;;;12.89;90.30
19624;BME280;9959;49.798;9.928;2023-05-09T02:14:27;99895.59;;;12.88;89.50
19624;BME280;9959;49.798;9.928;2023-05-09T02:16:54;99901.69;;;12.84;89.68
19624;BME280;9959;49.798;9.928;2023-05-09T02:19:21;99890.25;;;12.82;90.06
19624;BME280;9959;49.798;9.928;2023-05-09T02:21:48;99899.06;;;12.71;91.06
19624;BME280;9959;49.798;9.928;2023-05-09T02:24:14;99890.97;;;12.71;91.00
19624;BME280;9959;49.798;9.928;2023-05-09T02:26:42;99903.88;;;12.69;90.77
19624;BME280;9959;49.798;9.928;2023-05-09T02:29:09;99895.59;;;12.64;91.61
19624;BME280;9959;49.798;9.928;2023-05-09T02:31:39;99896.47;;;12.58;92.64
19624;BME280;9959;49.798;9.928;2023-05-09T02:34:07;99892.78;;;12.52;92.89
19624;BME280;9959;49.798;9.928;2023-05-09T02:36:35;99895.06;;;12.48;92.89
19624;BME280;9959;49.798;9.928;2023-05-09T02:39:03;99898.59;;;12.49;92.84
19624;BME280;9959;49.798;9.928;2023-05-09T02:41:33;99895.31;;;12.40;93.47
19624;BME280;9959;49.798;9.928;2023-05-09T02:44:00;99887.84;;;12.42;93.27
19624;BME280;9959;49.798;9.928;2023-05-09T02:46:26;99898.22;;;12.45;93.17
19624;BME280;9959;49.798;9.928;2023-05-09T02:48:54;99889.75;;;12.35;93.85
19624;BME280;9959;49.798;9.928;2023-05-09T02:51:21;99888.44;;;12.44;92.76
19624;BME280;9959;49.798;9.928;2023-05-09T02:53:47;99882.78;;;12.52;93.03
19624;BME280;9959;49.798;9.928;2023-05-09T02:56:14;99889.03;;;12.53;92.12
19624;BME280;9959;49.798;9.928;2023-05-09T02:58:41;99881.16;;;12.45;92.74
19624;BME280;9959;49.798;9.928;2023-05-09T03:01:08;99882.78;;;12.52;92.61
19624;BME280;9959;49.798;9.928;2023-05-09T03:03:35;99873.19;;;12.57;92.62
19624;BME280;9959;49.798;9.928;2023-05-09T03:06:03;99876.78;;;12.50;92.66
19624;BME280;9959;49.798;9.928;2023-05-09T03:08:30;99877.81;;;12.49;93.42
19624;BME280;9959;49.798;9.928;2023-05-09T03:10:57;99879.03;;;12.53;93.72
19624;BME280;9959;49.798;9.928;2023-05-09T03:13:24;99871.19;;;12.45;95.38
19624;BME280;9959;49.798;9.928;2023-05-09T03:15:51;99866.44;;;12.41;97.81
19624;BME280;9959;49.798;9.928;2023-05-09T03:18:18;99864.81;;;12.33;99.28
19624;BME280;9959;49.798;9.928;2023-05-09T03:20:45;99869.59;;;12.31;99.75
19624;BME280;9959;49.798;9.928;2023-05-09T03:23:11;99866.75;;;12.26;99.40
19624;BME280;9959;49.798;9.928;2023-05-09T03:25:38;99868.84;;;12.24;98.38
19624;BME280;9959;49.798;9.928;2023-05-09T03:28:05;99864.69;;;12.22;98.24
19624;BME280;9959;49.798;9.928;2023-05-09T03:30:31;99865.28;;;12.30;97.08
19624;BME280;9959;49.798;9.928;2023-05-09T03:32:58;99864.00;;;12.33;95.70
19624;BME280;9959;49.798;9.928;2023-05-09T03:35:25;99864.56;;;12.41;95.70
19624;BME280;9959;49.798;9.928;2023-05-09T03:37:52;99860.03;;;12.35;95.32
19624;BME280;9959;49.798;9.928;2023-05-09T03:40:19;99866.31;;;12.29;94.45
19624;BME280;9959;49.798;9.928;2023-05-09T03:42:46;99860.25;;;12.34;93.58
19624;BME280;9959;49.798;9.928;2023-05-09T03:45:13;99854.63;;;12.35;93.91
19624;BME280;9959;49.798;9.928;2023-05-09T03:47:40;99857.94;;;12.37;93.07
19624;BME280;9959;49.798;9.928;2023-05-09T03:50:08;99850.44;;;12.39;92.84
19624;BME280;9959;49.798;9.928;2023-05-09T03:52:35;99854.19;;;12.38;93.34
19624;BME280;9959;49.798;9.928;2023-05-09T03:55:03;99847.13;;;12.37;93.18
19624;BME280;9959;49.798;9.928;2023-05-09T03:57:30;99846.69;;;12.40;93.34
19624;BME280;9959;49.798;9.928;2023-05-09T03:59:57;99845.44;;;12.43;93.26
19624;BME280;9959;49.798;9.928;2023-05-09T04:02:24;99845.38;;;12.49;93.40
19624;BME280;9959;49.798;9.928;2023-05-09T04:04:51;99844.59;;;12.42;93.54
19624;BME280;9959;49.798;9.928;2023-05-09T04:07:18;99850.63;;;12.44;93.64
19624;BME280;9959;49.798;9.928;2023-05-09T04:09:46;99845.00;;;12.46;93.70
19624;BME280;9959;49.798;9.928;2023-05-09T04:12:13;99844.16;;;12.45;93.38
19624;BME280;9959;49.798;9.928;2023-05-09T04:14:40;99845.38;;;12.49;92.72
19624;BME280;9959;49.798;9.928;2023-05-09T04:17:07;99840.00;;;12.49;93.88
19624;BME280;9959;49.798;9.928;2023-05-09T04:19:33;99843.34;;;12.45;93.46
19624;BME280;9959;49.798;9.928;2023-05-09T04:22:00;99841.44;;;12.52;93.23
19624;BME280;9959;49.798;9.928;2023-05-09T04:24:27;99843.31;;;12.51;93.00
19624;BME280;9959;49.798;9.928;2023-05-09T04:26:54;99847.00;;;12.57;92.40
19624;BME280;9959;49.798;9.928;2023-05-09T04:29:21;99839.94;;;12.56;92.31
19624;BME280;9959;49.798;9.928;2023-05-09T04:31:47;99855.94;;;12.58;91.96
19624;BME280;9959;49.798;9.928;2023-05-09T04:34:14;99851.59;;;12.57;91.83
19624;BME280;9959;49.798;9.928;2023-05-09T04:36:41;99855.25;;;12.62;91.36
19624;BME280;9959;49.798;9.928;2023-05-09T04:39:08;99844.88;;;12.59;91.22
19624;BME280;9959;49.798;9.928;2023-05-09T04:41:36;99841.53;;;12.64;90.89
19624;BME280;9959;49.798;9.928;2023-05-09T04:44:03;99847.09;;;12.69;90.89
19624;BME280;9959;49.798;9.928;2023-05-09T04:46:30;99850.41;;;12.71;90.53
19624;BME280;9959;49.798;9.928;2023-05-09T04:48:57;99846.63;;;12.78;89.92
19624;BME280;9959;49.798;9.928;2023-05-09T04:51:24;99853.16;;;12.89;89.37
19624;BME280;9959;49.798;9.928;2023-05-09T04:53:51;99853.47;;;12.81;89.08
19624;BME280;9959;49.798;9.928;2023-05-09T04:56:18;99850.66;;;12.87;89.27
19624;BME280;9959;49.798;9.928;2023-05-09T04:58:45;99852.88;;;12.97;88.77
19624;BME280;9959;49.798;9.928;2023-05-09T05:01:12;99847.03;;;13.00;88.06
19624;BME280;9959;49.798;9.928;2023-05-09T05:03:39;99850.22;;;13.15;87.28
19624;BME280;9959;49.798;9.928;2023-05-09T05:06:06;99847.47;;;13.22;86.62
19624;BME280;9959;49.798;9.928;2023-05-09T05:08:33;99842.31;;;13.39;86.39
19624;BME280;9959;49.798;9.928;2023-05-09T05:11:00;99844.84;;;13.52;85.22
19624;BME280;9959;49.798;9.928;2023-05-09T05:13:28;99839.44;;;13.52;84.91
19624;BME280;9959;49.798;9.928;2023-05-09T05:15:55;99843.16;;;13.69;83.88
19624;BME280;9959;49.798;9.928;2023-05-09T05:18:23;99838.88;;;13.80;83.13
19624;BME280;9959;49.798;9.928;2023-05-09T05:20:50;99835.63;;;13.89;83.00
19624;BME280;9959;49.798;9.928;2023-05-09T05:23:17;99840.31;;;13.82;82.94
19624;BME280;9959;49.798;9.928;2023-05-09T05:25:43;99839.22;;;14.02;82.55
19624;BME280;9959;49.798;9.928;2023-05-09T05:28:10;99845.38;;;14.09;82.04
19624;BME280;9959;49.798;9.928;2023-05-09T05:30:39;99840.88;;;14.03;81.94
19624;BME280;9959;49.798;9.928;2023-05-09T05:33:06;99852.44;;;14.10;81.46
19624;BME280;9959;49.798;9.928;2023-05-09T05:35:33;99845.81;;;14.06;81.42
19624;BME280;9959;49.798;9.928;2023-05-09T05:38:00;99845.00;;;14.05;82.24
19624;BME280;9959;49.798;9.928;2023-05-09T05:40:26;99840.25;;;14.19;82.08
19624;BME280;9959;49.798;9.928;2023-05-09T05:42:53;99835.44;;;14.33;80.77
19624;BME280;9959;49.798;9.928;2023-05-09T05:45:20;99837.09;;;14.34;80.97
19624;BME280;9959;49.798;9.928;2023-05-09T05:47:47;99834.34;;;14.22;80.54
19624;BME280;9959;49.798;9.928;2023-05-09T05:50:14;99836.78;;;14.12;81.16
19624;BME280;9959;49.798;9.928;2023-05-09T05:52:41;99835.13;;;14.11;81.16
19624;BME280;9959;49.798;9.928;2023-05-09T05:55:08;99823.00;;;14.13;80.80
19624;BME280;9959;49.798;9.928;2023-05-09T05:57:35;99823.75;;;14.20;79.45
19624;BME280;9959;49.798;9.928;2023-05-09T06:00:04;99825.25;;;14.16;79.79
19624;BME280;9959;49.798;9.928;2023-05-09T06:02:33;99823.94;;;14.07;79.59
19624;BME280;9959;49.798;9.928;2023-05-09T06:05:00;99824.06;;;14.12;79.17
19624;BME280;9959;49.798;9.928;2023-05-09T06:07:27;99823.56;;;14.04;79.66
19624;BME280;9959;49.798;9.928;2023-05-09T06:09:54;99818.75;;;14.06;79.17
19624;BME280;9959;49.798;9.928;2023-05-09T06:12:20;99817.53;;;14.02;79.67
19624;BME280;9959;49.798;9.928;2023-05-09T06:14:47;99810.38;;;14.07;78.71
19624;BME280;9959;49.798;9.928;2023-05-09T06:17:14;99817.72;;;14.18;78.22
19624;BME280;9959;49.798;9.928;2023-05-09T06:19:41;99817.88;;;14.35;77.26
19624;BME280;9959;49.798;9.928;2023-05-09T06:22:08;99825.97;;;14.53;76.34
19624;BME280;9959;49.798;9.928;2023-05-09T06:24:34;99822.91;;;14.62;74.71
19624;BME280;9959;49.798;9.928;2023-05-09T06:27:02;99824.56;;;14.63;72.74
19624;BME280;9959;49.798;9.928;2023-05-09T06:29:29;99823.19;;;14.95;71.95
19624;BME280;9959;49.798;9.928;2023-05-09T06:31:56;99807.47;;;15.09;71.03
19624;BME280;9959;49.798;9.928;2023-05-09T06:34:23;99817.13;;;15.05;70.38
19624;BME280;9959;49.798;9.928;2023-05-09T06:36:50;99802.59;;;15.46;68.45
19624;BME280;9959;49.798;9.928;2023-05-09T06:39:17;99793.06;;;15.83;66.71
19624;BME280;9959;49.798;9.928;2023-05-09T06:41:43;99796.75;;;15.77;65.17
19624;BME280;9959;49.798;9.928;2023-05-09T06:44:10;99798.78;;;15.99;63.01
19624;BME280;9959;49.798;9.928;2023-05-09T06:46:37;99792.88;;;16.18;62.37
19624;BME280;9959;49.798;9.928;2023-05-09T06:49:04;99798.72;;;16.10;60.59
19624;BME280;9959;49.798;9.928;2023-05-09T06:51:31;99794.84;;;16.06;61.22
19624;BME280;9959;49.798;9.928;2023-05-09T06:53:58;99786.03;;;16.16;60.81
19624;BME280;9959;49.798;9.928;2023-05-09T06:56:25;99782.34;;;16.22;60.53
19624;BME280;9959;49.798;9.928;2023-05-09T06:58:52;99786.53;;;16.13;60.40
19624;BME280;9959;49.798;9.928;2023-05-09T07:01:19;99789.91;;;16.20;58.43
19624;BME280;9959;49.798;9.928;2023-05-09T07:03:46;99778.00;;;15.93;58.69
19624;BME280;9959;49.798;9.928;2023-05-09T07:06:13;99783.16;;;16.06;58.38
19624;BME280;9959;49.798;9.928;2023-05-09T07:08:40;99776.44;;;15.97;58.15
19624;BME280;9959;49.798;9.928;2023-05-09T07:11:07;99775.75;;;15.89;58.58
19624;BME280;9959;49.798;9.928;2023-05-09T07:13:34;99768.69;;;15.88;57.91
19624;BME280;9959;49.798;9.928;2023-05-09T07:16:02;99777.47;;;16.07;58.19
19624;BME280;9959;49.798;9.928;2023-05-09T07:18:29;99775.97;;;16.00;57.74
19624;BME280;9959;49.798;9.928;2023-05-09T07:20:56;99776.66;;;16.07;57.46
19624;BME280;9959;49.798;9.928;2023-05-09T07:23:23;99773.81;;;16.02;57.36
19624;BME280;9959;49.798;9.928;2023-05-09T07:25:58;99768.00;;;16.10;57.42
19624;BME280;9959;49.798;9.928;2023-05-09T07:28:25;99762.97;;;16.02;58.09
19624;BME280;9959;49.798;9.928;2023-05-09T07:30:54;99758.69;;;16.06;57.95
19624;BME280;9959;49.798;9.928;2023-05-09T07:33:21;99749.06;;;16.48;56.31
19624;BME280;9959;49.798;9.928;2023-05-09T07:35:48;99750.13;;;16.81;55.02
19624;BME280;9959;49.798;9.928;2023-05-09T07:38:14;99755.94;;;17.28;53.88
19624;BME280;9959;49.798;9.928;2023-05-09T07:40:41;99751.22;;;17.40;54.29
19624;BME280;9959;49.798;9.928;2023-05-09T07:43:08;99734.53;;;17.58;53.75
19624;BME280;9959;49.798;9.928;2023-05-09T07:45:35;99736.38;;;18.34;52.38
19624;BME280;9959;49.798;9.928;2023-05-09T07:48:02;99730.06;;;18.28;52.24
19624;BME280;9959;49.798;9.928;2023-05-09T07:50:29;99730.84;;;18.23;52.22
19624;BME280;9959;49.798;9.928;2023-05-09T07:52:56;99723.38;;;18.14;51.76
19624;BME280;9959;49.798;9.928;2023-05-09T07:55:23;99724.97;;;18.05;51.46
19624;BME280;9959;49.798;9.928;2023-05-09T07:57:49;99727.13;;;17.54;53.05
19624;BME280;9959;49.798;9.928;2023-05-09T08:00:16;99729.16;;;18.49;50.28
19624;BME280;9959;49.798;9.928;2023-05-09T08:02:52;99722.69;;;17.97;50.55
19624;BME280;9959;49.798;9.928;2023-05-09T08:05:19;99723.91;;;18.11;50.18
19624;BME280;9959;49.798;9.928;2023-05-09T08:07:46;99717.59;;;17.78;50.67
19624;BME280;9959;49.798;9.928;2023-05-09T08:10:12;99720.94;;;17.85;51.19
19624;BME280;9959;49.798;9.928;2023-05-09T08:12:39;99724.69;;;18.06;50.72
19624;BME280;9959;49.798;9.928;2023-05-09T08:15:06;99722.81;;;18.12;50.65
19624;BME280;9959;49.798;9.928;2023-05-09T08:17:33;99708.91;;;17.81;50.92
19624;BME280;9959;49.798;9.928;2023-05-09T08:20:00;99704.94;;;17.94;51.59
19624;BME280;9959;49.798;9.928;2023-05-09T08:22:27;99703.47;;;18.13;50.91
19624;BME280;9959;49.798;9.928;2023-05-09T08:24:54;99711.59;;;18.08;50.51
19624;BME280;9959;49.798;9.928;2023-05-09T08:27:21;99698.84;;;18.14;50.31
19624;BME280;9959;49.798;9.928;2023-05-09T08:29:47;99699.66;;;18.46;49.57
19624;BME280;9959;49.798;9.928;2023-05-09T08:32:14;99695.00;;;18.10;50.52
19624;BME280;9959;49.798;9.928;2023-05-09T08:34:41;99690.72;;;18.19;49.96
19624;BME280;9959;49.798;9.928;2023-05-09T08:37:08;99687.47;;;18.22;50.18
19624;BME280;9959;49.798;9.928;2023-05-09T08:39:37;99682.78;;;18.17;50.24
19624;BME280;9959;49.798;9.928;2023-05-09T08:42:04;99676.25;;;17.86;51.20
19624;BME280;9959;49.798;9.928;2023-05-09T08:44:31;99680.03;;;18.49;49.81
19624;BME280;9959;49.798;9.928;2023-05-09T08:47:00;99679.25;;;18.54;49.57
19624;BME280;9959;49.798;9.928;2023-05-09T08:49:27;99663.66;;;18.86;48.08
19624;BME280;9959;49.798;9.928;2023-05-09T08:51:55;99668.25;;;18.81;48.33
19624;BME280;9959;49.798;9.928;2023-05-09T08:54:23;99670.25;;;19.88;46.08
19624;BME280;9959;49.798;9.928;2023-05-09T08:56:50;99666.16;;;20.16;45.60
19624;BME280;9959;49.798;9.928;2023-05-09T08:59:17;99664.19;;;20.63;44.18
19624;BME280;9959;49.798;9.928;2023-05-09T09:01:44;99663.69;;;20.20;42.37
19624;BME280;9959;49.798;9.928;2023-05-09T09:04:11;99658.06;;;20.96;40.80
19624;BME280;9959;49.798;9.928;2023-05-09T09:06:38;99652.44;;;20.52;41.32
19624;BME280;9959;49.798;9.928;2023-05-09T09:09:07;99640.97;;;19.74;42.61
19624;BME280;9959;49.798;9.928;2023-05-09T09:11:36;99625.84;;;20.73;41.96
19624;BME280;9959;49.798;9.928;2023-05-09T09:14:16;99623.94;;;20.68;40.84
19624;BME280;9959;49.798;9.928;2023-05-09T09:16:46;99626.72;;;20.33;42.33
19624;BME280;9959;49.798;9.928;2023-05-09T09:19:16;99620.44;;;21.27;39.42
19624;BME280;9959;49.798;9.928;2023-05-09T09:21:45;99619.34;;;21.62;39.00
19624;BME280;9959;49.798;9.928;2023-05-09T09:24:21;99613.25;;;21.75;38.66
19624;BME280;9959;49.798;9.928;2023-05-09T09:26:49;99610.63;;;21.60;38.59
19624;BME280;9959;49.798;9.928;2023-05-09T09:29:17;99604.19;;;21.75;37.97
19624;BME280;9959;49.798;9.928;2023-05-09T09:31:45;99598.75;;;21.31;38.90
19624;BME280;9959;49.798;9.928;2023-05-09T09:34:19;99590.03;;;20.54;39.83
19624;BME280;9959;49.798;9.928;2023-05-09T09:36:46;99586.00;;;21.06;37.47
19624;BME280;9959;49.798;9.928;2023-05-09T09:39:14;99579.38;;;21.12;37.90
19624;BME280;9959;49.798;9.928;2023-05-09T09:41:41;99573.41;;;21.05;36.74
19624;BME280;9959;49.798;9.928;2023-05-09T09:44:17;99570.59;;;22.22;35.21
19624;BME280;9959;49.798;9.928;2023-05-09T09:46:49;99569.88;;;20.99;36.13
19624;BME280;9959;49.798;9.928;2023-05-09T09:49:19;99571.06;;;21.66;35.34
19624;BME280;9959;49.798;9.928;2023-05-09T09:54:17;99569.16;;;22.01;33.44
19624;BME280;9959;49.798;9.928;2023-05-09T09:56:45;99564.59;;;21.57;33.22
19624;BME280;9959;49.798;9.928;2023-05-09T09:59:14;99556.66;;;21.55;32.89
19624;BME280;9959;49.798;9.928;2023-05-09T10:01:58;99543.53;;;22.15;31.41
19624;BME280;9959;49.798;9.928;2023-05-09T10:04:30;99541.75;;;22.01;30.63
19624;BME280;9959;49.798;9.928;2023-05-09T10:07:00;99545.06;;;21.30;32.73
19624;BME280;9959;49.798;9.928;2023-05-09T10:09:29;99536.28;;;22.48;30.23
19624;BME280;9959;49.798;9.928;2023-05-09T10:12:03;99545.31;;;21.67;32.12
19624;BME280;9959;49.798;9.928;2023-05-09T10:14:31;99539.50;;;23.36;29.23
19624;BME280;9959;49.798;9.928;2023-05-09T10:17:02;99533.31;;;23.62;28.13
19624;BME280;9959;49.798;9.928;2023-05-09T10:19:31;99524.06;;;23.40;28.61
19624;BME280;9959;49.798;9.928;2023-05-09T10:22:02;99528.22;;;22.81;29.04
19624;BME280;9959;49.798;9.928;2023-05-09T10:27:08;99528.69;;;22.64;28.35
19624;BME280;9959;49.798;9.928;2023-05-09T10:30:03;99519.84;;;21.90;29.82
19624;BME280;9959;49.798;9.928;2023-05-09T10:32:52;99512.63;;;22.95;29.29
19624;BME280;9959;49.798;9.928;2023-05-09T10:35:24;99515.53;;;22.85;29.58
19624;BME280;9959;49.798;9.928;2023-05-09T10:37:54;99499.38;;;21.83;31.02
19624;BME280;9959;49.798;9.928;2023-05-09T10:40:22;99488.75;;;22.00;30.19
19624;BME280;9959;49.798;9.928;2023-05-09T10:42:49;99487.66;;;22.49;30.90
19624;BME280;9959;49.798;9.928;2023-05-09T10:45:16;99496.69;;;22.07;31.39
19624;BME280;9959;49.798;9.928;2023-05-09T10:47:44;99488.09;;;22.99;30.40
19624;BME280;9959;49.798;9.928;2023-05-09T10:50:12;99478.66;;;22.67;30.56
19624;BME280;9959;49.798;9.928;2023-05-09T10:55:54;99462.66;;;22.93;30.56
19624;BME280;9959;49.798;9.928;2023-05-09T11:01:00;99454.69;;;23.61;29.51
19624;BME280;9959;49.798;9.928;2023-05-09T11:03:28;99446.16;;;23.90;28.84
19624;BME280;9959;49.798;9.928;2023-05-09T11:09:44;99426.78;;;23.68;28.39
19624;BME280;9959;49.798;9.928;2023-05-09T11:12:12;99429.25;;;23.83;28.67
19624;BME280;9959;49.798;9.928;2023-05-09T11:14:47;99427.72;;;23.12;29.93
19624;BME280;9959;49.798;9.928;2023-05-09T11:22:28;99410.19;;;23.73;29.14
19624;BME280;9959;49.798;9.928;2023-05-09T11:25:03;99414.16;;;23.67;29.70
19624;BME280;9959;49.798;9.928;2023-05-09T11:27:47;99403.78;;;23.91;29.38
19624;BME280;9959;49.798;9.928;2023-05-09T11:30:18;99396.84;;;23.94;27.81
19624;BME280;9959;49.798;9.928;2023-05-09T11:32:51;99399.63;;;23.48;28.32
19624;BME280;9959;49.798;9.928;2023-05-09T11:35:22;99395.22;;;23.79;27.13
19624;BME280;9959;49.798;9.928;2023-05-09T11:38:03;99392.81;;;24.55;26.85
19624;BME280;9959;49.798;9.928;2023-05-09T11:40:33;99379.69;;;24.74;26.65
19624;BME280;9959;49.798;9.928;2023-05-09T11:43:00;99376.75;;;24.71;26.50
19624;BME280;9959;49.798;9.928;2023-05-09T11:45:29;99377.16;;;24.64;26.38
19624;BME280;9959;49.798;9.928;2023-05-09T11:47:57;99372.38;;;24.92;25.28
19624;BME280;9959;49.798;9.928;2023-05-09T11:50:24;99367.50;;;26.13;26.02
19624;BME280;9959;49.798;9.928;2023-05-09T11:52:52;99359.09;;;24.94;26.73
19624;BME280;9959;49.798;9.928;2023-05-09T11:55:20;99359.63;;;25.49;26.04
19624;BME280;9959;49.798;9.928;2023-05-09T11:57:56;99349.97;;;23.85;28.16
19624;BME280;9959;49.798;9.928;2023-05-09T12:00:23;99346.50;;;23.52;27.86
19624;BME280;9959;49.798;9.928;2023-05-09T12:02:51;99347.69;;;24.15;27.86
19624;BME280;9959;49.798;9.928;2023-05-09T12:05:20;99335.00;;;25.61;26.92
19624;BME280;9959;49.798;9.928;2023-05-09T12:07:47;99337.03;;;24.94;27.21
19624;BME280;9959;49.798;9.928;2023-05-09T12:10:18;99327.44;;;24.60;27.72
19624;BME280;9959;49.798;9.928;2023-05-09T12:12:47;99319.63;;;24.40;28.39
19624;BME280;9959;49.798;9.928;2023-05-09T12:15:15;99324.28;;;24.04;28.18
19624;BME280;9959;49.798;9.928;2023-05-09T12:17:44;99321.91;;;24.83;27.02
19624;BME280;9959;49.798;9.928;2023-05-09T12:20:13;99312.13;;;24.54;27.62
19624;BME280;9959;49.798;9.928;2023-05-09T12:22:43;99299.09;;;24.46;27.63
19624;BME280;9959;49.798;9.928;2023-05-09T12:25:10;99306.25;;;25.54;27.42
19624;BME280;9959;49.798;9.928;2023-05-09T12:27:39;99304.69;;;25.30;26.97
19624;BME280;9959;49.798;9.928;2023-05-09T12:30:07;99302.94;;;25.04;27.20
19624;BME280;9959;49.798;9.928;2023-05-09T12:32:36;99303.50;;;25.14;27.22
19624;BME280;9959;49.798;9.928;2023-05-09T12:35:07;99294.03;;;25.07;27.06
19624;BME280;9959;49.798;9.928;2023-05-09T12:37:36;99287.41;;;25.47;26.74
19624;BME280;9959;49.798;9.928;2023-05-09T12:40:11;99289.28;;;24.99;27.23
19624;BME280;9959;49.798;9.928;2023-05-09T12:42:38;99280.63;;;26.53;25.50
19624;BME280;9959;49.798;9.928;2023-05-09T12:45:09;99281.09;;;26.04;25.78
19624;BME280;9959;49.798;9.928;2023-05-09T12:47:37;99273.91;;;26.89;25.62
19624;BME280;9959;49.798;9.928;2023-05-09T12:50:06;99263.38;;;25.48;26.82
19624;BME280;9959;49.798;9.928;2023-05-09T12:52:38;99263.50;;;25.82;26.19
19624;BME280;9959;49.798;9.928;2023-05-09T12:55:25;99264.03;;;25.45;27.17
19624;BME280;9959;49.798;9.928;2023-05-09T12:58:01;99261.28;;;26.71;25.59
19624;BME280;9959;49.798;9.928;2023-05-09T13:00:41;99252.19;;;25.92;26.86
19624;BME280;9959;49.798;9.928;2023-05-09T13:03:20;99255.28;;;26.77;26.12
19624;BME280;9959;49.798;9.928;2023-05-09T13:05:57;99244.69;;;25.84;26.92
19624;BME280;9959;49.798;9.928;2023-05-09T13:08:25;99249.63;;;26.48;26.35
19624;BME280;9959;49.798;9.928;2023-05-09T13:10:52;99240.44;;;25.78;27.81
19624;BME280;9959;49.798;9.928;2023-05-09T13:13:33;99228.34;;;25.40;28.13
19624;BME280;9959;49.798;9.928;2023-05-09T13:16:02;99227.19;;;26.15;27.30
19624;BME280;9959;49.798;9.928;2023-05-09T13:18:33;99217.59;;;25.95;27.09
19624;BME280;9959;49.798;9.928;2023-05-09T13:21:00;99214.94;;;25.73;27.08
19624;BME280;9959;49.798;9.928;2023-05-09T13:23:26;99225.00;;;25.20;28.37
19624;BME280;9959;49.798;9.928;2023-05-09T13:25:53;99207.69;;;26.20;27.47
19624;BME280;9959;49.798;9.928;2023-05-09T13:28:20;99203.41;;;26.66;26.36
19624;BME280;9959;49.798;9.928;2023-05-09T13:30:47;99198.59;;;26.37;27.47
19624;BME280;9959;49.798;9.928;2023-05-09T13:33:14;99183.28;;;26.56;27.66
19624;BME280;9959;49.798;9.928;2023-05-09T13:35:51;99191.13;;;26.20;27.40
19624;BME280;9959;49.798;9.928;2023-05-09T13:38:18;99181.72;;;26.93;27.05
19624;BME280;9959;49.798;9.928;2023-05-09T13:40:45;99177.81;;;26.13;28.03
19624;BME280;9959;49.798;9.928;2023-05-09T13:43:12;99171.78;;;26.20;27.65